Balfour, Canada
Current Conditions -  °F | °C
As of 10:00 AM on Friday 28 Nov 2014 (Local Time) from CYXC Reporting Station
Broken Clouds Broken Clouds  
Wind Chill: 40°   Ceiling: 10000
Heat Index: 46°   Visibility: 20mi
Dew Point: 39°   Wind: 15mph
Humidity: 76%   Direction: 150°SSE
Pressure: 29.32"   Gusts: 22mph
Location:  49.63°N, 116.97°W
Report Text: CYXC 281800Z 15013G19KT 20SM FEW030 BKN100 BKN160 BKN230 08/04 A2932 RMK SC1AC4AC1CC1 SH ALQDS SLP941 DENSITY ALT 3600FT
Loading
Personal Weather Stations






























Interactive Weather Map New forecast layout! Learn more

10-Day Weather Forecast

Advertisements
Track Severe Weather on mobile